Time;durP1;ratioP1;P1;durP2;ratioP2;P2;SDS_P1;SDS_P2;PMS_P1;PMS_P2;Temp;Humidity;BMP_temperature;BMP_pressure;BME280_temperature;BME280_humidity;BME280_pressure;Samples;Min_cycle;Max_cycle;Signal;HPM_P1;HPM_P2
2021/12/13 00:01:36;;;;;;;35.80;11.70;;;9.50;99.90;;;;;;4925111;29;20161;-80
2021/12/13 00:04:28;;;;;;;36.25;10.75;;;9.50;99.90;;;;;;4911348;29;20051;-78
2021/12/13 00:07:04;;;;;;;47.65;11.73;;;9.50;99.90;;;;;;4925052;29;20059;-78
2021/12/13 00:09:32;;;;;;;;;;;9.50;99.90;;;;;;4928741;29;20133;-79
2021/12/13 00:12:01;;;;;;;35.58;11.52;;;9.50;99.90;;;;;;4910447;29;20371;-80
2021/12/13 00:14:37;;;;;;;33.90;11.02;;;9.50;99.90;;;;;;4924559;29;20043;-79
2021/12/13 00:17:03;;;;;;;32.42;12.13;;;9.50;99.90;;;;;;4926559;29;20055;-79
2021/12/13 00:19:47;;;;;;;37.88;12.52;;;9.50;99.90;;;;;;4925739;29;20055;-78
2021/12/13 00:22:25;;;;;;;33.88;10.68;;;9.50;99.90;;;;;;4942028;28;20059;-78
2021/12/13 00:24:52;;;;;;;36.42;10.57;;;9.50;99.90;;;;;;4910045;29;20047;-78
2021/12/13 00:27:25;;;;;;;35.88;9.63;;;9.40;99.90;;;;;;4923288;29;20048;-79
2021/12/13 00:30:13;;;;;;;30.02;9.77;;;9.40;99.90;;;;;;4925095;29;20047;-78
2021/12/13 00:33:05;;;;;;;25.08;8.85;;;9.40;99.90;;;;;;4924203;29;20228;-78
2021/12/13 00:35:45;;;;;;;25.30;8.40;;;9.40;99.90;;;;;;4916807;29;20051;-79
2021/12/13 00:38:13;;;;;;;33.63;9.90;;;9.40;99.90;;;;;;4915817;29;20048;-78
2021/12/13 00:40:44;;;;;;;25.83;9.40;;;9.40;99.90;;;;;;4910250;29;20051;-79
2021/12/13 00:43:13;;;;;;;26.45;7.90;;;9.30;99.90;;;;;;4930496;29;20059;-79
2021/12/13 00:45:53;;;;;;;33.25;8.35;;;9.30;99.90;;;;;;4911412;29;20126;-78
2021/12/13 00:48:20;;;;;;;24.85;8.15;;;9.20;99.90;;;;;;4925307;29;20468;-79
2021/12/13 00:51:11;;;;;;;27.45;8.15;;;9.20;99.90;;;;;;4907577;29;20040;-78
2021/12/13 00:53:42;;;;;;;36.53;8.43;;;9.30;99.90;;;;;;4927506;29;20043;-78
2021/12/13 00:56:46;;;;;;;34.42;8.05;;;9.20;99.90;;;;;;4924008;29;20390;-79
2021/12/13 00:59:30;;;;;;;28.70;6.95;;;9.30;99.90;;;;;;4924488;29;20387;-79
2021/12/13 01:02:05;;;;;;;33.22;7.57;;;9.30;99.90;;;;;;4923442;29;20449;-79
2021/12/13 01:04:46;;;;;;;31.43;7.30;;;9.30;99.90;;;;;;4924778;29;20461;-79
2021/12/13 01:07:24;;;;;;;34.38;8.07;;;9.30;99.90;;;;;;4925248;29;20134;-79
2021/12/13 01:10:11;;;;;;;29.85;7.22;;;9.70;99.90;;;;;;4924676;28;20059;-79
2021/12/13 01:12:38;;;;;;;27.58;8.07;;;9.30;99.90;;;;;;4928560;29;20638;-79
2021/12/13 01:15:16;;;;;;;30.83;6.65;;;9.30;99.90;;;;;;4938154;29;20154;-79
2021/12/13 01:17:55;;;;;;;31.30;6.85;;;9.30;99.90;;;;;;4930285;29;20055;-79
2021/12/13 01:20:33;;;;;;;24.40;6.80;;;9.30;99.90;;;;;;4925155;29;20048;-80
2021/12/13 01:23:07;;;;;;;32.40;6.32;;;9.30;99.90;;;;;;4924105;29;20397;-80
2021/12/13 01:25:48;;;;;;;33.65;7.20;;;9.40;99.90;;;;;;4924055;29;20047;-80
2021/12/13 01:28:19;;;;;;;26.60;6.22;;;9.20;99.90;;;;;;4923991;29;20094;-79
2021/12/13 01:30:51;;;;;;;29.65;6.10;;;9.20;99.90;;;;;;4924772;29;20074;-79
2021/12/13 01:33:18;;;;;;;34.83;6.30;;;9.20;99.90;;;;;;4924831;29;20467;-79
2021/12/13 01:35:48;;;;;;;26.27;6.05;;;9.20;99.90;;;;;;4924277;29;20062;-79
2021/12/13 01:38:31;;;;;;;24.17;5.60;;;9.20;99.90;;;;;;4924236;29;20046;-79
2021/12/13 01:40:59;;;;;;;22.75;4.65;;;9.10;99.90;;;;;;4923356;29;20047;-79
2021/12/13 01:43:32;;;;;;;19.45;5.25;;;9.10;99.90;;;;;;4922813;29;20089;-79
2021/12/13 01:45:59;;;;;;;23.50;5.65;;;9.10;99.90;;;;;;4904091;29;20039;-79
2021/12/13 01:48:33;;;;;;;24.77;6.22;;;9.10;99.90;;;;;;4919710;29;20082;-79
2021/12/13 01:51:06;;;;;;;22.70;5.38;;;9.10;99.90;;;;;;4923237;29;20404;-79
2021/12/13 01:53:55;;;;;;;22.10;5.80;;;9.10;99.90;;;;;;4922968;29;20070;-79
2021/12/13 01:56:45;;;;;;;28.92;5.47;;;9.00;99.90;;;;;;4924058;29;20051;-80
2021/12/13 02:02:11;;;;;;;29.55;4.88;;;9.00;99.90;;;;;;4928300;29;20066;-78
2021/12/13 02:04:37;;;;;;;17.27;4.55;;;9.00;99.90;;;;;;4932206;29;20106;-79
2021/12/13 02:07:04;;;;;;;23.17;4.60;;;8.90;99.90;;;;;;4927144;29;20497;-79
2021/12/13 02:09:44;;;;;;;21.38;4.60;;;8.90;99.90;;;;;;4943371;28;20062;-79
2021/12/13 02:12:16;;;;;;;24.52;4.30;;;9.00;99.90;;;;;;4942468;28;20527;-80
2021/12/13 02:16:55;;;;;;;24.73;4.28;;;9.00;99.90;;;;;;4941004;28;20138;-79
2021/12/13 02:17:37;;;;;;;15.48;3.30;;;8.90;99.90;;;;;;4927383;29;20058;-80
2021/12/13 02:20:15;;;;;;;13.18;3.60;;;8.90;99.90;;;;;;4916677;29;20114;-79
2021/12/13 02:22:45;;;;;;;17.73;4.53;;;8.90;99.90;;;;;;4926156;29;20524;-80
2021/12/13 02:25:26;;;;;;;15.07;3.33;;;8.90;99.90;;;;;;4934751;29;20514;-80
2021/12/13 02:27:58;;;;;;;20.00;3.45;;;9.00;99.90;;;;;;4927785;29;20062;-79
2021/12/13 02:30:42;;;;;;;18.08;3.00;;;9.00;99.90;;;;;;4926255;29;20724;-80
2021/12/13 02:33:12;;;;;;;16.75;3.53;;;9.00;99.90;;;;;;4942191;29;20386;-80
2021/12/13 02:35:44;;;;;;;15.85;3.10;;;9.00;99.90;;;;;;4931949;29;20122;-79
2021/12/13 02:38:11;;;;;;;12.02;2.35;;;9.00;99.90;;;;;;4927843;29;20052;-79
2021/12/13 02:40:37;;;;;;;17.38;2.90;;;9.00;99.90;;;;;;4910253;29;20429;-80
2021/12/13 02:43:07;;;;;;;13.20;2.85;;;9.00;99.90;;;;;;4926820;29;20049;-80
2021/12/13 02:45:42;;;;;;;15.38;2.85;;;9.00;99.90;;;;;;4908959;29;20047;-79
2021/12/13 02:48:38;;;;;;;9.38;2.22;;;9.00;99.90;;;;;;4943136;28;20079;-79
2021/12/13 02:51:33;;;;;;;11.02;2.65;;;9.00;99.90;;;;;;4932593;29;20042;-79
2021/12/13 02:54:03;;;;;;;10.25;2.72;;;9.00;99.90;;;;;;4923395;29;20133;-79
2021/12/13 02:56:36;;;;;;;13.68;2.67;;;9.00;99.90;;;;;;4925678;29;20062;-79
2021/12/13 02:59:04;;;;;;;13.57;2.55;;;8.90;99.90;;;;;;4931374;29;20055;-81
2021/12/13 03:01:32;;;;;;;15.50;3.20;;;8.90;99.90;;;;;;4924145;29;20070;-80
2021/12/13 03:04:03;;;;;;;9.63;2.33;;;8.90;99.90;;;;;;4925450;29;20054;-79
2021/12/13 03:06:33;;;;;;;13.70;2.17;;;8.90;99.90;;;;;;4942396;28;20098;-79
2021/12/13 03:09:04;;;;;;;12.40;2.60;;;8.90;99.90;;;;;;4927997;29;20055;-79
2021/12/13 03:11:33;;;;;;;9.55;2.60;;;8.90;99.90;;;;;;4942432;28;20051;-79
2021/12/13 03:14:11;;;;;;;8.85;1.92;;;8.90;99.90;;;;;;4926070;29;20083;-78
2021/12/13 03:16:43;;;;;;;9.65;2.30;;;8.90;99.90;;;;;;4931332;29;20043;-79
2021/12/13 03:19:47;;;;;;;8.52;2.40;;;8.80;99.90;;;;;;4926413;29;20524;-79
2021/12/13 03:22:38;;;;;;;5.78;1.95;;;8.90;99.90;;;;;;4923287;29;20039;-79
2021/12/13 03:25:15;;;;;;;11.73;2.60;;;8.80;99.90;;;;;;4915292;29;20075;-79
2021/12/13 03:28:12;;;;;;;7.97;2.03;;;8.90;99.90;;;;;;4925935;29;20083;-79
2021/12/13 03:31:03;;;;;;;8.15;1.92;;;8.90;99.90;;;;;;4924166;29;20099;-79
2021/12/13 03:34:05;;;;;;;12.15;2.20;;;8.90;99.90;;;;;;4923750;29;20505;-79
2021/12/13 03:36:38;;;;;;;11.68;2.55;;;8.90;99.90;;;;;;4915768;29;20083;-79
2021/12/13 03:39:08;;;;;;;11.70;2.03;;;8.90;99.90;;;;;;4937025;29;20122;-79
2021/12/13 03:41:38;;;;;;;8.70;2.03;;;8.90;99.90;;;;;;4925172;29;20493;-79
2021/12/13 03:44:11;;;;;;;8.40;1.98;;;9.00;99.90;;;;;;4926220;29;20057;-79
2021/12/13 03:46:37;;;;;;;7.97;1.60;;;8.90;99.90;;;;;;4921107;29;20050;-79
2021/12/13 03:49:06;;;;;;;8.50;1.70;;;8.90;99.90;;;;;;4926689;29;20155;-79
2021/12/13 03:51:37;;;;;;;12.57;2.00;;;8.90;99.90;;;;;;4925125;29;20051;-80
2021/12/13 03:54:07;;;;;;;9.10;1.73;;;8.90;99.90;;;;;;4930012;29;20485;-79
2021/12/13 03:56:42;;;;;;;8.43;1.67;;;8.90;99.90;;;;;;4925156;29;20497;-79
2021/12/13 03:59:19;;;;;;;5.18;1.42;;;8.90;99.90;;;;;;4941014;28;20063;-79
2021/12/13 04:01:52;;;;;;;5.07;1.27;;;8.90;99.90;;;;;;4923867;29;20050;-78
2021/12/13 04:04:23;;;;;;;8.45;1.67;;;8.90;99.90;;;;;;4930980;29;20517;-79
2021/12/13 04:06:53;;;;;;;6.70;1.50;;;8.90;99.90;;;;;;4924339;29;20115;-80
2021/12/13 04:09:21;;;;;;;7.43;1.50;;;8.80;99.90;;;;;;4927543;29;20075;-80
2021/12/13 04:11:51;;;;;;;4.88;1.63;;;8.90;99.90;;;;;;4924455;29;20114;-80
2021/12/13 04:14:25;;;;;;;6.55;1.77;;;8.90;99.90;;;;;;4928665;29;20055;-80
2021/12/13 04:17:34;;;;;;;7.45;1.65;;;8.90;99.90;;;;;;4926686;29;20051;-80
2021/12/13 04:20:06;;;;;;;9.55;1.85;;;8.90;99.90;;;;;;4922161;29;20079;-80
2021/12/13 04:22:34;;;;;;;9.32;1.50;;;8.90;99.90;;;;;;4923933;29;20062;-81
2021/12/13 04:25:12;;;;;;;7.45;1.50;;;8.80;99.90;;;;;;4930507;29;20129;-80
2021/12/13 04:28:04;;;;;;;5.57;1.80;;;8.80;99.90;;;;;;4913195;29;20047;-80
2021/12/13 04:30:41;;;;;;;6.28;1.95;;;8.80;99.90;;;;;;4909833;29;20062;-81
2021/12/13 04:33:13;;;;;;;5.03;1.77;;;8.80;99.90;;;;;;4926176;29;20146;-80
2021/12/13 04:35:40;;;;;;;8.75;2.53;;;8.80;99.90;;;;;;4942143;29;20070;-80
2021/12/13 04:38:07;;;;;;;7.25;2.38;;;8.80;99.90;;;;;;4910101;29;20043;-80
2021/12/13 04:40:40;;;;;;;7.68;2.70;;;8.80;99.90;;;;;;4895588;29;20401;-81
2021/12/13 04:43:13;;;;;;;7.82;2.97;;;8.80;99.90;;;;;;4922380;29;20043;-80
2021/12/13 04:45:42;;;;;;;7.22;3.38;;;8.70;99.90;;;;;;4924075;29;20123;-80
2021/12/13 04:48:08;;;;;;;9.52;3.67;;;8.70;99.90;;;;;;4926272;29;20126;-80
2021/12/13 04:50:54;;;;;;;11.63;4.25;;;8.80;99.90;;;;;;4924811;29;20142;-80
2021/12/13 04:53:28;;;;;;;11.65;4.70;;;8.70;99.90;;;;;;4915824;29;20130;-80
2021/12/13 04:55:56;;;;;;;11.45;3.97;;;8.60;99.90;;;;;;4931337;29;20054;-80
2021/12/13 04:58:22;;;;;;;9.18;3.67;;;8.60;99.90;;;;;;4927510;29;20051;-80
2021/12/13 05:00:53;;;;;;;6.80;3.10;;;8.60;99.90;;;;;;4923446;29;20146;-80
2021/12/13 05:03:24;;;;;;;9.80;3.30;;;8.60;99.90;;;;;;4925819;29;20043;-80
2021/12/13 05:05:50;;;;;;;7.40;3.10;;;8.50;99.90;;;;;;4925994;29;20053;-79
2021/12/13 05:08:18;;;;;;;6.85;2.83;;;8.50;99.90;;;;;;4927382;29;20086;-80
2021/12/13 05:10:48;;;;;;;6.00;2.90;;;8.50;99.90;;;;;;4930955;29;20428;-80
2021/12/13 05:13:15;;;;;;;6.47;3.13;;;8.50;99.90;;;;;;4940984;28;20492;-80
2021/12/13 05:15:50;;;;;;;8.65;3.33;;;8.50;99.90;;;;;;4929641;29;20118;-80
2021/12/13 05:18:23;;;;;;;9.38;3.47;;;8.50;99.90;;;;;;4927121;29;20183;-80
2021/12/13 05:20:57;;;;;;;9.10;4.00;;;8.50;99.90;;;;;;4930182;29;20126;-80
2021/12/13 05:23:24;;;;;;;9.40;4.60;;;8.50;99.90;;;;;;4912402;29;20096;-80
2021/12/13 05:25:51;;;;;;;9.48;4.15;;;8.50;99.90;;;;;;4913872;29;20055;-80
2021/12/13 05:28:44;;;;;;;8.43;5.10;;;8.50;99.90;;;;;;4925348;29;20723;-79
2021/12/13 05:31:16;;;;;;;9.57;5.68;;;8.50;99.90;;;;;;4914775;29;20054;-80
2021/12/13 05:33:42;;;;;;;11.52;6.32;;;8.50;99.90;;;;;;4925719;29;20532;-80
2021/12/13 05:36:19;;;;;;;10.50;6.65;;;8.50;99.90;;;;;;4931485;28;20082;-80
2021/12/13 05:38:48;;;;;;;8.90;6.68;;;8.50;99.90;;;;;;4924279;29;20449;-80
2021/12/13 05:41:25;;;;;;;9.45;6.72;;;7.70;99.90;;;;;;4925053;29;20130;-80
2021/12/13 05:43:55;;;;;;;10.70;7.10;;;8.50;99.90;;;;;;4923662;29;20548;-80
2021/12/13 05:46:25;;;;;;;10.20;7.18;;;8.50;99.90;;;;;;4924640;29;20062;-80
2021/12/13 05:48:56;;;;;;;11.55;8.15;;;8.50;99.90;;;;;;4925264;29;20107;-80
2021/12/13 05:51:49;;;;;;;10.77;8.38;;;8.50;99.90;;;;;;4925568;29;20062;-81
2021/12/13 05:54:21;;;;;;;11.85;7.78;;;8.50;99.90;;;;;;4942271;29;20050;-80
2021/12/13 05:57:07;;;;;;;12.18;8.32;;;8.50;99.90;;;;;;4927034;29;20106;-80
2021/12/13 05:59:53;;;;;;;11.73;9.10;;;8.50;99.90;;;;;;4928964;29;20059;-80
2021/12/13 06:02:36;;;;;;;12.85;8.73;;;8.50;99.90;;;;;;4932841;29;20444;-80
2021/12/13 06:05:07;;;;;;;10.98;7.85;;;8.50;99.90;;;;;;4925561;29;20051;-80
2021/12/13 06:07:38;;;;;;;15.68;8.05;;;8.50;99.90;;;;;;4924974;29;20128;-80
2021/12/13 06:10:09;;;;;;;16.95;8.90;;;8.50;99.90;;;;;;4920306;29;20518;-80
2021/12/13 06:12:55;;;;;;;13.43;8.63;;;8.50;99.90;;;;;;4898544;29;20407;-80
2021/12/13 06:15:40;;;;;;;12.80;8.43;;;8.50;99.90;;;;;;4892909;29;20076;-80
2021/12/13 06:18:21;;;;;;;11.85;8.70;;;8.50;99.90;;;;;;4893622;29;20135;-80
2021/12/13 06:21:02;;;;;;;13.10;9.35;;;8.50;99.90;;;;;;4891690;29;20048;-80
2021/12/13 06:23:33;;;;;;;11.57;8.98;;;8.50;99.90;;;;;;4887145;29;20401;-80
2021/12/13 06:26:05;;;;;;;13.55;9.43;;;8.50;99.90;;;;;;4901726;29;20054;-79
2021/12/13 06:28:52;;;;;;;14.65;9.85;;;8.50;99.90;;;;;;4908145;29;20048;-79
2021/12/13 06:31:21;;;;;;;12.75;9.75;;;8.50;99.90;;;;;;4887718;29;20056;-80
2021/12/13 06:33:55;;;;;;;16.58;10.05;;;8.50;99.90;;;;;;4901679;29;20867;-79
2021/12/13 06:36:30;;;;;;;14.20;9.40;;;8.50;99.90;;;;;;4918092;29;20143;-80
2021/12/13 06:39:08;;;;;;;13.57;9.60;;;8.60;99.90;;;;;;4903170;29;20811;-79
2021/12/13 06:41:41;;;;;;;12.88;9.73;;;8.50;99.90;;;;;;4907054;29;20048;-79
2021/12/13 06:44:24;;;;;;;20.73;10.85;;;8.50;99.90;;;;;;4886550;29;20118;-79
2021/12/13 06:47:03;;;;;;;13.35;9.88;;;8.50;99.90;;;;;;4901408;29;20080;-80
2021/12/13 06:49:29;;;;;;;15.00;10.15;;;8.50;99.90;;;;;;4908405;29;20044;-80
2021/12/13 06:52:00;;;;;;;14.82;9.63;;;8.50;99.90;;;;;;4904559;29;20131;-79
2021/12/13 06:54:46;;;;;;;14.95;9.90;;;8.60;99.90;;;;;;4912808;29;20048;-79
2021/12/13 06:57:46;;;;;;;13.52;9.57;;;8.50;99.90;;;;;;4910688;29;22731;-79
2021/12/13 07:00:21;;;;;;;14.38;9.40;;;8.50;99.90;;;;;;4908174;29;20060;-79
2021/12/13 07:02:54;;;;;;;15.70;10.18;;;8.80;99.90;;;;;;4890641;29;20056;-79
2021/12/13 07:05:25;;;;;;;12.48;9.73;;;8.40;99.90;;;;;;4906222;29;20127;-79
2021/12/13 07:08:10;;;;;;;12.80;9.48;;;8.50;99.90;;;;;;4905978;29;20052;-78
2021/12/13 07:10:44;;;;;;;13.27;10.63;;;8.50;99.90;;;;;;4910212;29;20059;-79
2021/12/13 07:13:23;;;;;;;15.13;10.07;;;8.50;99.90;;;;;;4927057;29;20509;-79
2021/12/13 07:16:13;;;;;;;14.68;10.80;;;8.50;99.90;;;;;;4927837;29;20134;-78
2021/12/13 07:19:00;;;;;;;13.27;10.50;;;8.50;99.90;;;;;;4927972;29;20626;-80
2021/12/13 07:21:25;;;;;;;;;;;8.50;99.90;;;;;;4926923;29;20047;-81
2021/12/13 07:24:10;;;;;;;16.37;10.53;;;8.50;99.90;;;;;;4927464;29;19938;-80
2021/12/13 07:26:39;;;;;;;14.60;10.73;;;8.50;99.90;;;;;;4925755;28;20110;-80
2021/12/13 07:29:12;;;;;;;14.63;11.18;;;8.50;99.90;;;;;;4926930;29;20040;-79
2021/12/13 07:31:41;;;;;;;15.90;11.88;;;8.50;99.90;;;;;;4926950;29;20061;-79
2021/12/13 07:34:19;;;;;;;18.52;12.32;;;8.50;99.90;;;;;;4927626;29;20050;-79
2021/12/13 07:37:00;;;;;;;14.90;11.00;;;8.50;99.90;;;;;;4926276;29;20051;-79
2021/12/13 07:39:30;;;;;;;15.55;11.98;;;8.50;99.90;;;;;;4929907;29;20142;-78
2021/12/13 07:42:02;;;;;;;18.92;13.13;;;8.50;99.90;;;;;;4931075;29;20116;-78
2021/12/13 07:44:31;;;;;;;19.70;12.82;;;8.50;99.90;;;;;;4937125;29;20501;-79
2021/12/13 07:47:06;;;;;;;17.60;12.25;;;8.50;99.90;;;;;;4941031;29;20044;-79
2021/12/13 07:49:35;;;;;;;18.50;12.27;;;8.50;99.90;;;;;;4943912;28;20074;-79
2021/12/13 07:52:03;;;;;;;17.25;12.32;;;8.50;99.90;;;;;;4926036;29;20043;-78
2021/12/13 07:54:40;;;;;;;20.25;13.15;;;8.50;99.90;;;;;;4927651;29;20048;-80
2021/12/13 07:57:22;;;;;;;19.35;13.10;;;8.50;99.90;;;;;;4927075;29;20130;-78
2021/12/13 07:59:49;;;;;;;18.02;13.05;;;8.50;99.90;;;;;;4934031;29;20063;-79
2021/12/13 08:02:22;;;;;;;18.52;12.80;;;8.50;99.90;;;;;;4915269;29;20047;-79
2021/12/13 08:04:52;;;;;;;20.50;12.63;;;8.50;99.90;;;;;;4941558;29;20134;-79
2021/12/13 08:07:26;;;;;;;19.42;14.25;;;8.50;99.90;;;;;;4927641;29;20055;-80
2021/12/13 08:09:59;;;;;;;18.05;13.73;;;8.50;99.90;;;;;;4928463;29;20066;-78
2021/12/13 08:12:39;;;;;;;19.67;13.35;;;8.50;99.90;;;;;;4926701;28;20048;-80
2021/12/13 08:15:23;;;;;;;18.15;13.43;;;8.50;99.90;;;;;;4912529;29;20051;-78
2021/12/13 08:17:53;;;;;;;16.88;13.18;;;8.50;99.90;;;;;;4931768;29;20055;-77
2021/12/13 08:20:33;;;;;;;19.55;13.98;;;8.50;99.90;;;;;;4927059;29;20059;-79
2021/12/13 08:23:02;;;;;;;17.55;13.73;;;8.60;99.90;;;;;;4927427;29;20070;-79
2021/12/13 08:25:38;;;;;;;19.13;13.73;;;8.60;99.90;;;;;;4927231;29;20097;-79
2021/12/13 08:28:08;;;;;;;21.42;13.82;;;8.60;99.90;;;;;;4926542;29;20321;-79
2021/12/13 08:30:48;;;;;;;18.83;13.65;;;8.60;99.90;;;;;;4943549;28;20043;-79
2021/12/13 08:33:19;;;;;;;19.50;13.15;;;8.60;99.90;;;;;;4930895;29;20043;-78
2021/12/13 08:36:28;;;;;;;16.38;12.75;;;8.60;99.90;;;;;;4925797;29;20051;-78
2021/12/13 08:39:29;;;;;;;16.52;12.43;;;8.60;99.90;;;;;;4886061;29;20180;-79
2021/12/13 08:42:09;;;;;;;17.33;12.65;;;8.60;99.90;;;;;;4883106;29;20461;-79
2021/12/13 08:44:52;;;;;;;17.52;12.63;;;8.60;99.90;;;;;;4918312;29;20055;-79
2021/12/13 08:47:30;;;;;;;17.52;12.52;;;8.60;99.90;;;;;;4925960;29;20509;-79
2021/12/13 08:50:00;;;;;;;16.65;11.68;;;8.60;99.90;;;;;;4925217;29;20401;-79
2021/12/13 08:52:34;;;;;;;16.10;12.10;;;8.60;99.90;;;;;;4925761;29;20079;-79
2021/12/13 08:55:12;;;;;;;15.35;12.40;;;8.60;99.90;;;;;;4941996;28;20055;-79
2021/12/13 08:57:47;;;;;;;15.90;11.52;;;8.60;99.90;;;;;;4941558;29;20367;-79
2021/12/13 09:00:13;;;;;;;17.60;12.82;;;8.60;99.90;;;;;;4928071;29;20035;-79
2021/12/13 09:02:45;;;;;;;14.25;11.90;;;8.60;99.90;;;;;;4926235;29;20505;-79
2021/12/13 09:05:33;;;;;;;16.63;11.30;;;8.60;99.90;;;;;;4925835;29;20155;-79
2021/12/13 09:08:10;;;;;;;15.68;11.63;;;8.60;99.90;;;;;;4929977;29;20059;-79
2021/12/13 09:10:52;;;;;;;14.95;11.25;;;8.60;99.90;;;;;;4925080;29;20059;-79
2021/12/13 09:13:33;;;;;;;15.07;10.73;;;8.60;99.90;;;;;;4909737;29;20363;-79
2021/12/13 09:16:00;;;;;;;13.50;11.00;;;8.60;99.90;;;;;;4931273;29;20127;-79
2021/12/13 09:18:26;;;;;;;16.23;11.32;;;8.70;99.90;;;;;;4932124;29;20089;-79
2021/12/13 09:20:54;;;;;;;13.68;10.27;;;8.60;99.90;;;;;;4924521;29;20342;-79
2021/12/13 09:23:30;;;;;;;15.05;10.77;;;8.70;99.90;;;;;;4932264;29;20047;-79
2021/12/13 09:26:14;;;;;;;15.73;10.30;;;8.70;99.90;;;;;;4925639;29;20079;-79
2021/12/13 09:28:55;;;;;;;15.10;10.55;;;8.70;99.90;;;;;;4932515;29;20043;-79
2021/12/13 09:31:26;;;;;;;12.23;10.25;;;8.70;99.90;;;;;;4929492;29;20805;-79
2021/12/13 09:34:16;;;;;;;12.25;10.30;;;8.70;99.90;;;;;;4924638;29;20046;-80
2021/12/13 09:36:45;;;;;;;12.80;9.48;;;8.70;99.90;;;;;;4931165;29;20086;-79
2021/12/13 09:39:23;;;;;;;14.00;10.05;;;8.80;99.90;;;;;;4924250;29;20066;-79
2021/12/13 09:42:06;;;;;;;12.13;9.77;;;8.70;99.90;;;;;;4924094;29;20058;-79
2021/12/13 09:44:33;;;;;;;11.82;9.43;;;8.70;99.90;;;;;;4925286;29;20051;-79
2021/12/13 09:47:07;;;;;;;16.05;9.05;;;8.70;99.90;;;;;;4924149;29;20122;-79
2021/12/13 09:49:49;;;;;;;14.80;8.82;;;8.70;99.90;;;;;;4908897;29;20044;-79
2021/12/13 09:52:26;;;;;;;11.23;8.77;;;8.70;99.90;;;;;;4928939;29;20114;-79
2021/12/13 09:54:54;;;;;;;12.82;8.70;;;8.70;99.90;;;;;;4919971;29;20086;-79
2021/12/13 09:57:37;;;;;;;11.40;9.18;;;8.70;99.90;;;;;;4930470;29;20059;-79
2021/12/13 10:00:26;;;;;;;14.40;8.70;;;8.80;99.90;;;;;;4923864;29;20047;-79
2021/12/13 10:02:57;;;;;;;12.82;8.25;;;8.80;99.90;;;;;;4923822;29;20500;-79
2021/12/13 10:05:29;;;;;;;14.30;7.78;;;8.80;99.90;;;;;;4923892;29;20048;-79
2021/12/13 10:08:00;;;;;;;10.63;8.10;;;8.90;99.90;;;;;;4909594;29;20039;-79
2021/12/13 10:10:54;;;;;;;14.73;7.32;;;8.90;99.90;;;;;;4924692;29;20058;-79
2021/12/13 10:13:32;;;;;;;10.35;7.93;;;8.90;99.90;;;;;;4924540;29;20492;-78
2021/12/13 10:16:02;;;;;;;11.07;7.07;;;9.00;99.90;;;;;;4930160;29;20758;-79
2021/12/13 10:18:31;;;;;;;10.43;7.35;;;9.00;99.90;;;;;;4925219;29;20043;-79
2021/12/13 10:21:23;;;;;;;10.82;6.70;;;9.00;99.90;;;;;;4929929;29;20098;-79
2021/12/13 10:23:56;;;;;;;11.57;6.38;;;9.10;99.90;;;;;;4925126;29;20088;-78
2021/12/13 10:26:25;;;;;;;10.18;6.57;;;9.10;99.90;;;;;;4927243;29;20325;-79
2021/12/13 10:28:55;;;;;;;13.55;7.28;;;9.20;99.90;;;;;;4944735;28;20118;-79
2021/12/13 10:31:38;;;;;;;9.30;6.25;;;9.20;99.90;;;;;;4917194;29;20079;-79
2021/12/13 10:34:11;;;;;;;11.38;6.72;;;9.20;99.90;;;;;;4933354;29;20075;-79
2021/12/13 10:36:39;;;;;;;10.30;6.22;;;9.30;99.90;;;;;;4929396;29;20074;-79
2021/12/13 10:39:18;;;;;;;9.93;6.10;;;9.30;99.90;;;;;;4933895;29;20047;-79
2021/12/13 10:41:47;;;;;;;8.73;6.20;;;9.40;99.90;;;;;;4928346;29;20043;-79
2021/12/13 10:44:26;;;;;;;10.07;6.13;;;9.40;99.90;;;;;;4945494;28;20047;-79
2021/12/13 10:46:53;;;;;;;11.55;6.32;;;9.40;99.90;;;;;;4913277;29;20404;-79
2021/12/13 10:49:24;;;;;;;10.68;6.20;;;9.40;99.90;;;;;;4929721;29;20549;-78
2021/12/13 10:52:05;;;;;;;10.77;6.45;;;9.50;99.90;;;;;;4940221;29;20043;-79
2021/12/13 10:54:36;;;;;;;10.38;6.63;;;9.50;99.90;;;;;;4929141;29;20051;-79
2021/12/13 10:57:16;;;;;;;10.50;6.10;;;9.60;99.90;;;;;;4929544;29;20453;-78
2021/12/13 10:59:43;;;;;;;9.57;6.32;;;9.60;99.90;;;;;;4934057;29;20114;-79
2021/12/13 11:02:16;;;;;;;10.13;6.47;;;9.60;99.90;;;;;;4943093;28;20058;-79
2021/12/13 11:05:10;;;;;;;10.70;5.97;;;9.70;99.90;;;;;;4943157;29;20454;-79
2021/12/13 11:07:36;;;;;;;8.15;5.55;;;9.80;99.90;;;;;;4931430;29;20520;-79
2021/12/13 11:10:08;;;;;;;10.93;5.63;;;9.80;99.90;;;;;;4923679;29;20155;-79
2021/12/13 11:12:39;;;;;;;10.95;5.60;;;9.90;99.90;;;;;;4928253;29;20494;-79
2021/12/13 11:15:10;;;;;;;10.48;5.47;;;10.00;99.90;;;;;;4929763;29;20540;-81
2021/12/13 11:17:37;;;;;;;10.23;5.70;;;10.00;99.90;;;;;;4924901;29;20495;-80
2021/12/13 11:20:16;;;;;;;10.05;5.47;;;10.00;99.90;;;;;;4909274;29;20552;-83
2021/12/13 11:22:46;;;;;;;12.00;5.50;;;10.00;99.90;;;;;;4928980;29;20047;-81
2021/12/13 11:25:45;;;;;;;9.45;5.50;;;10.00;99.90;;;;;;4924854;29;20393;-80
2021/12/13 11:28:14;;;;;;;11.90;6.10;;;10.00;99.90;;;;;;4922387;29;20090;-81
2021/12/13 11:30:45;;;;;;;8.75;5.40;;;10.00;99.90;;;;;;4908447;29;20405;-79
2021/12/13 11:33:22;;;;;;;9.65;5.57;;;10.10;99.90;;;;;;4924490;29;20777;-79
2021/12/13 11:36:06;;;;;;;9.43;4.60;;;10.00;99.90;;;;;;4908525;29;20047;-80
2021/12/13 11:38:50;;;;;;;7.28;4.38;;;10.10;99.90;;;;;;4922613;29;20047;-81
2021/12/13 11:41:35;;;;;;;7.57;3.80;;;10.00;99.90;;;;;;4923082;29;20044;-80
2021/12/13 11:44:33;;;;;;;11.25;3.75;;;10.00;99.90;;;;;;4914914;29;20048;-80
2021/12/13 11:47:33;;;;;;;7.97;3.55;;;10.00;99.90;;;;;;4913683;29;20505;-82
2021/12/13 11:50:02;;;;;;;8.23;3.47;;;10.00;99.90;;;;;;4923844;29;20067;-79
2021/12/13 11:52:46;;;;;;;8.07;3.65;;;10.00;99.90;;;;;;4938606;29;20047;-80
2021/12/13 11:55:51;;;;;;;9.07;3.55;;;10.00;99.90;;;;;;4923288;29;20053;-80
2021/12/13 11:58:31;;;;;;;8.27;3.22;;;10.00;99.90;;;;;;4905413;29;20066;-80
2021/12/13 12:01:36;;;;;;;11.32;3.63;;;10.00;99.90;;;;;;4905749;29;20489;-80
2021/12/13 12:04:08;;;;;;;8.95;3.00;;;10.00;99.90;;;;;;4923294;29;20154;-80
2021/12/13 12:07:07;;;;;;;7.72;3.45;;;10.00;99.90;;;;;;4939646;29;20056;-80
2021/12/13 12:10:11;;;;;;;7.82;3.45;;;10.00;99.90;;;;;;4910019;29;20071;-79
2021/12/13 12:12:45;;;;;;;8.80;3.70;;;9.90;99.90;;;;;;4925345;29;20043;-79
2021/12/13 12:15:12;;;;;;;9.50;3.35;;;9.90;99.90;;;;;;4907660;29;20047;-79
2021/12/13 12:17:38;;;;;;;6.53;3.53;;;9.90;99.90;;;;;;4924264;29;20048;-79
2021/12/13 12:20:18;;;;;;;6.57;3.55;;;9.80;99.90;;;;;;4897139;29;20048;-80
2021/12/13 12:22:53;;;;;;;9.05;4.03;;;9.80;99.90;;;;;;4923123;29;20091;-79
2021/12/13 12:25:21;;;;;;;7.18;3.53;;;9.80;99.90;;;;;;4907052;29;20052;-79
2021/12/13 12:27:48;;;;;;;9.75;4.35;;;9.70;99.90;;;;;;4924767;29;20056;-80
2021/12/13 12:30:23;;;;;;;9.40;3.63;;;9.70;99.90;;;;;;4906838;29;20047;-79
2021/12/13 12:32:57;;;;;;;10.05;3.88;;;9.70;99.90;;;;;;4922063;29;20063;-79
2021/12/13 12:35:32;;;;;;;9.15;3.88;;;9.60;99.90;;;;;;4920301;29;20056;-80
2021/12/13 12:38:01;;;;;;;10.07;3.60;;;9.50;99.90;;;;;;4923772;29;20485;-80
2021/12/13 12:40:48;;;;;;;9.70;4.25;;;9.40;99.90;;;;;;4907117;29;20048;-79
2021/12/13 12:43:19;;;;;;;8.82;3.72;;;9.40;99.90;;;;;;4939610;29;20048;-79
2021/12/13 12:45:58;;;;;;;10.75;3.63;;;9.60;99.90;;;;;;4922144;29;20035;-79
2021/12/13 12:48:40;;;;;;;10.23;3.83;;;9.30;99.90;;;;;;4908164;29;20126;-79
2021/12/13 12:51:19;;;;;;;8.60;4.38;;;9.20;99.90;;;;;;4921035;29;20131;-79
2021/12/13 12:53:52;;;;;;;10.48;4.85;;;9.10;99.90;;;;;;4929400;29;20090;-79
2021/12/13 12:56:42;;;;;;;12.23;4.30;;;9.10;99.90;;;;;;4927730;29;20493;-79
2021/12/13 12:59:16;;;;;;;11.80;4.60;;;9.10;99.90;;;;;;4921996;29;20052;-80
2021/12/13 13:01:45;;;;;;;10.82;5.05;;;9.00;99.90;;;;;;4905349;29;20102;-79
2021/12/13 13:04:20;;;;;;;13.90;4.68;;;9.00;99.90;;;;;;4922687;29;20047;-79
2021/12/13 13:07:25;;;;;;;13.87;4.50;;;9.00;99.90;;;;;;4928244;29;20043;-79
2021/12/13 13:10:19;;;;;;;12.73;4.22;;;9.00;99.90;;;;;;4912012;29;20123;-79
2021/12/13 13:12:45;;;;;;;17.33;4.85;;;9.00;99.90;;;;;;4922431;29;20048;-79
2021/12/13 13:15:19;;;;;;;11.35;4.82;;;9.00;99.90;;;;;;4922116;29;20048;-79
2021/12/13 13:17:51;;;;;;;12.27;4.22;;;9.00;99.90;;;;;;4939026;28;20059;-79
2021/12/13 13:20:26;;;;;;;15.75;4.20;;;9.00;99.90;;;;;;4938181;28;20047;-79
2021/12/13 13:22:54;;;;;;;9.30;4.53;;;9.00;99.90;;;;;;4906807;29;20055;-79
2021/12/13 13:25:31;;;;;;;12.30;4.40;;;9.00;99.90;;;;;;4928500;29;20652;-79
2021/12/13 13:27:59;;;;;;;11.98;4.50;;;9.00;99.90;;;;;;4938797;29;20133;-79
2021/12/13 13:30:45;;;;;;;13.15;4.45;;;9.00;99.90;;;;;;4920599;29;20517;-79
2021/12/13 13:33:10;;;;;;;10.27;4.38;;;9.00;99.90;;;;;;4913505;29;20062;-79
2021/12/13 13:35:37;;;;;;;10.48;4.55;;;9.00;99.90;;;;;;4887688;29;20479;-79
2021/12/13 13:38:15;;;;;;;13.00;4.35;;;9.00;99.90;;;;;;4908101;29;20130;-79